Terminal Aerodrome Forecast
Issued by NWS

Home | Current Version | Previous Version | Text Only | Print | Product List | Glossary On
Versions: 1 2 3 4 5 6 7 8 9 10 11 12 13 14 15 16 17 18 19 20 21 22 23 24 25 26 27 28 29 30 31 32 33 34 35
000
FTUS45 KGJT 112333
TAFEGE
TAF
KEGE 112333Z 1200/1224 23008KT P6SM VCTS SCT080CB SCT150
      TEMPO 1200/1202 VRB20G30KT 4SM TSRA SCT050 BKN070CB
     FM120200 10005KT P6SM VCSH SCT070 BKN110
     FM121200 00000KT P6SM SCT200
     FM121900 27007KT P6SM SCT080 SCT150
      AMD LTD TO CLD VIS AND WIND 1201/1213=

USA.gov is the U.S. government's official web portal to all federal, state and local government web resources and services.